Time;durP1;ratioP1;P1;durP2;ratioP2;P2;SDS_P1;SDS_P2;PMS_P1;PMS_P2;Temp;Humidity;BMP_temperature;BMP_pressure;BME280_temperature;BME280_humidity;BME280_pressure;Samples;Min_cycle;Max_cycle;Signal;HPM_P1;HPM_P2
2023/04/14 00:00:58;;;;;;;;;;;8.70;85.60;;;;;;5001281;28;19929;-70
2023/04/14 00:03:24;;;;;;;;;;;8.70;85.70;;;;;;4999241;28;20413;-69
2023/04/14 00:05:51;;;;;;;;;;;8.70;85.70;;;;;;5002742;28;19929;-70
2023/04/14 00:08:17;;;;;;;;;;;8.70;85.80;;;;;;5001736;28;20291;-69
2023/04/14 00:10:44;;;;;;;;;;;8.60;85.70;;;;;;5002637;28;19960;-70
2023/04/14 00:13:10;;;;;;;;;;;8.60;85.80;;;;;;5002344;28;19930;-69
2023/04/14 00:15:37;;;;;;;;;;;8.60;85.80;;;;;;5002099;28;19930;-70
2023/04/14 00:18:05;;;;;;;;;;;8.60;85.80;;;;;;5000550;28;20007;-69
2023/04/14 00:20:31;;;;;;;;;;;8.60;85.90;;;;;;5002804;28;20007;-69
2023/04/14 00:22:58;;;;;;;;;;;8.60;85.90;;;;;;5003081;28;20327;-70
2023/04/14 00:25:25;;;;;;;;;;;8.50;85.80;;;;;;5002912;28;19999;-69
2023/04/14 00:27:51;;;;;;;;;;;8.50;85.90;;;;;;4999876;28;19929;-69
2023/04/14 00:30:18;;;;;;;;;;;8.50;85.90;;;;;;5000825;28;19929;-70
2023/04/14 00:32:44;;;;;;;;;;;8.50;85.90;;;;;;5002518;28;19929;-69
2023/04/14 00:35:12;;;;;;;;;;;8.40;85.90;;;;;;5002398;28;19930;-69
2023/04/14 00:37:39;;;;;;;;;;;8.40;85.90;;;;;;5001296;28;19979;-68
2023/04/14 00:40:08;;;;;;;;;;;8.40;85.90;;;;;;5001980;28;19934;-68
2023/04/14 00:42:40;;;;;;;;;;;8.40;86.00;;;;;;5002849;28;19929;-68
2023/04/14 00:45:07;;;;;;;;;;;8.30;85.90;;;;;;4999830;28;19941;-69
2023/04/14 00:47:34;;;;;;;;;;;8.30;86.00;;;;;;5002252;28;20247;-69
2023/04/14 00:50:01;;;;;;;;;;;8.30;86.00;;;;;;5000872;28;20687;-69
2023/04/14 00:52:30;;;;;;;;;;;8.30;86.00;;;;;;4999444;28;19945;-69
2023/04/14 00:54:57;;;;;;;;;;;8.30;86.00;;;;;;5001764;28;19939;-69
2023/04/14 00:57:24;;;;;;;;;;;8.30;86.10;;;;;;5001505;28;19984;-69
2023/04/14 00:59:51;;;;;;;;;;;8.20;85.90;;;;;;4993471;28;19935;-69
2023/04/14 01:02:17;;;;;;;;;;;8.20;85.90;;;;;;5002488;28;19957;-69
2023/04/14 01:04:44;;;;;;;;;;;8.20;85.90;;;;;;5002462;28;19960;-70
2023/04/14 01:07:11;;;;;;;;;;;8.20;85.90;;;;;;5000911;28;19925;-69
2023/04/14 01:09:38;;;;;;;;;;;8.10;85.80;;;;;;5001669;28;19925;-68
2023/04/14 01:12:07;;;;;;;;;;;8.20;85.90;;;;;;5002188;28;19956;-69
2023/04/14 01:14:39;;;;;;;;;;;8.10;85.80;;;;;;4996088;28;19934;-68
2023/04/14 01:17:09;;;;;;;;;;;8.20;85.80;;;;;;4996784;28;20678;-69
2023/04/14 01:19:42;;;;;;;;;;;8.10;85.80;;;;;;5001817;28;19930;-69
2023/04/14 01:22:09;;;;;;;;;;;8.10;85.80;;;;;;4996287;28;19932;-70
2023/04/14 01:24:51;;;;;;;;;;;8.10;85.80;;;;;;5002771;28;20335;-69
2023/04/14 01:27:25;;;;;;;;;;;8.00;85.80;;;;;;4998724;28;20749;-69
2023/04/14 01:29:58;;;;;;;;;;;8.10;85.80;;;;;;4999139;28;20021;-69
2023/04/14 01:32:28;;;;;;;;;;;8.00;85.80;;;;;;4999432;28;19959;-69
2023/04/14 01:34:56;;;;;;;;;;;8.00;85.80;;;;;;5001910;28;19929;-68
2023/04/14 01:37:29;;;;;;;;;;;8.00;85.90;;;;;;5001220;28;19949;-69
2023/04/14 01:39:58;;;;;;;;;;;8.00;85.90;;;;;;5000920;28;19936;-69
2023/04/14 01:42:25;;;;;;;;;;;8.00;85.90;;;;;;5002423;28;19983;-69
2023/04/14 01:44:54;;;;;;;;;;;8.00;85.90;;;;;;5000023;28;19929;-69
2023/04/14 01:47:21;;;;;;;;;;;8.00;86.00;;;;;;5000871;28;19933;-69
2023/04/14 01:49:52;;;;;;;;;;;8.00;86.00;;;;;;5000775;28;20003;-68
2023/04/14 01:52:19;;;;;;;;;;;7.90;85.90;;;;;;4997883;28;20049;-69
2023/04/14 01:54:47;;;;;;;;;;;8.00;86.00;;;;;;5001538;28;19933;-69
2023/04/14 01:57:14;;;;;;;;;;;7.90;86.00;;;;;;5000586;28;20470;-69
2023/04/14 01:59:41;;;;;;;;;;;7.90;86.00;;;;;;4991783;28;19929;-69
2023/04/14 02:02:08;;;;;;;;;;;7.80;86.10;;;;;;5002074;28;20040;-70
2023/04/14 02:04:35;;;;;;;;;;;7.80;86.10;;;;;;5001750;28;19933;-69
2023/04/14 02:07:04;;;;;;;;;;;7.80;86.10;;;;;;4997146;28;19992;-69
2023/04/14 02:09:31;;;;;;;;;;;7.80;86.10;;;;;;4999381;28;19944;-68
2023/04/14 02:11:59;;;;;;;;;;;7.80;86.90;;;;;;5001531;28;20019;-70
2023/04/14 02:14:26;;;;;;;;;;;7.80;86.10;;;;;;4996949;28;19964;-69
2023/04/14 02:16:53;;;;;;;;;;;7.80;86.10;;;;;;4997553;28;19936;-69
2023/04/14 02:19:21;;;;;;;;;;;7.70;86.00;;;;;;5000958;28;19929;-69
2023/04/14 02:21:48;;;;;;;;;;;7.70;85.90;;;;;;5000767;28;19953;-69
2023/04/14 02:24:16;;;;;;;;;;;7.70;85.90;;;;;;5002117;28;19930;-69
2023/04/14 02:26:48;;;;;;;;;;;7.70;85.90;;;;;;4999342;28;19988;-69
2023/04/14 02:29:16;;;;;;;;;;;7.70;85.80;;;;;;4998534;28;19930;-69
2023/04/14 02:31:43;;;;;;;;;;;7.70;85.80;;;;;;5000642;28;19929;-68
2023/04/14 02:34:11;;;;;;;;;;;7.60;85.60;;;;;;4999975;28;20503;-69
2023/04/14 02:36:39;;;;;;;;;;;7.60;85.60;;;;;;5001978;28;20469;-68
2023/04/14 02:39:09;;;;;;;;;;;7.60;85.60;;;;;;5004197;28;20478;-69
2023/04/14 02:41:38;;;;;;;;;;;7.60;85.50;;;;;;5001509;28;19930;-68
2023/04/14 02:44:07;;;;;;;;;;;7.60;85.50;;;;;;5003047;28;19933;-69
2023/04/14 02:46:36;;;;;;;;;;;7.60;85.50;;;;;;5002639;28;20217;-67
2023/04/14 02:49:04;;;;;;;;;;;7.50;85.50;;;;;;5003753;28;19929;-68
2023/04/14 02:51:32;;;;;;;;;;;7.50;85.40;;;;;;5004649;28;19935;-68
2023/04/14 02:53:59;;;;;;;;;;;7.50;85.40;;;;;;5002057;28;19929;-69
2023/04/14 02:56:26;;;;;;;;;;;7.40;85.40;;;;;;5002794;28;19968;-69
2023/04/14 02:58:54;;;;;;;;;;;7.40;85.50;;;;;;4996144;28;19944;-69
2023/04/14 03:01:21;;;;;;;;;;;7.40;85.60;;;;;;5002899;28;20450;-69
2023/04/14 03:03:48;;;;;;;;;;;7.40;85.60;;;;;;5004836;28;19929;-69
2023/04/14 03:06:15;;;;;;;;;;;7.40;85.60;;;;;;5003586;28;19929;-69
2023/04/14 03:08:42;;;;;;;;;;;7.40;85.60;;;;;;5002824;28;19975;-69
2023/04/14 03:11:10;;;;;;;;;;;7.40;85.60;;;;;;5000688;28;20353;-69
2023/04/14 03:13:37;;;;;;;;;;;7.40;85.60;;;;;;4998571;28;19956;-68
2023/04/14 03:16:06;;;;;;;;;;;7.30;85.60;;;;;;5003006;28;19944;-69
2023/04/14 03:18:34;;;;;;;;;;;7.30;85.60;;;;;;5000359;28;19933;-69
2023/04/14 03:21:01;;;;;;;;;;;7.40;85.70;;;;;;5003691;28;20024;-69
2023/04/14 03:23:28;;;;;;;;;;;7.30;85.60;;;;;;5004617;28;19934;-69
2023/04/14 03:25:55;;;;;;;;;;;7.30;85.70;;;;;;5002716;28;19937;-68
2023/04/14 03:28:23;;;;;;;;;;;7.30;85.70;;;;;;5000515;28;20008;-69
2023/04/14 03:30:51;;;;;;;;;;;7.20;85.70;;;;;;5003105;28;19929;-68
2023/04/14 03:33:22;;;;;;;;;;;7.20;85.80;;;;;;5004235;28;19952;-69
2023/04/14 03:35:50;;;;;;;;;;;7.20;85.80;;;;;;5000686;28;19932;-69
2023/04/14 03:38:17;;;;;;;;;;;7.20;86.60;;;;;;5000677;28;19962;-69
2023/04/14 03:40:46;;;;;;;;;;;7.40;85.90;;;;;;5004173;28;20281;-68
2023/04/14 03:43:18;;;;;;;;;;;7.20;85.80;;;;;;4998692;28;20044;-69
2023/04/14 03:45:46;;;;;;;;;;;7.10;85.70;;;;;;5002555;28;20455;-69
2023/04/14 03:48:15;;;;;;;;;;;7.10;85.80;;;;;;5000715;28;19930;-69
2023/04/14 03:50:45;;;;;;;;;;;7.20;85.90;;;;;;5003921;28;20375;-68
2023/04/14 03:53:13;;;;;;;;;;;7.10;85.80;;;;;;5001488;28;19935;-69
2023/04/14 03:55:41;;;;;;;;;;;7.10;85.80;;;;;;5003471;28;19948;-69
2023/04/14 03:58:08;;;;;;;;;;;7.10;85.90;;;;;;4998822;28;19929;-70
2023/04/14 04:00:35;;;;;;;;;;;7.10;85.90;;;;;;4997375;28;19936;-69
2023/04/14 04:03:02;;;;;;;;;;;7.10;85.80;;;;;;5002918;28;19930;-68
2023/04/14 04:05:29;;;;;;;;;;;7.00;85.70;;;;;;5003529;28;19937;-69
2023/04/14 04:08:01;;;;;;;;;;;7.00;85.80;;;;;;4999059;28;19992;-68
2023/04/14 04:10:30;;;;;;;;;;;7.00;85.80;;;;;;5001566;28;20021;-69
2023/04/14 04:12:57;;;;;;;;;;;7.00;85.80;;;;;;5001792;28;20342;-68
2023/04/14 04:15:24;;;;;;;;;;;7.00;85.70;;;;;;4997685;28;19929;-69
2023/04/14 04:17:51;;;;;;;;;;;7.00;85.70;;;;;;5002117;28;19936;-68
2023/04/14 04:20:18;;;;;;;;;;;7.00;85.70;;;;;;5003459;28;20363;-69
2023/04/14 04:22:46;;;;;;;;;;;7.00;85.70;;;;;;5000413;28;20313;-69
2023/04/14 04:25:14;;;;;;;;;;;7.00;85.70;;;;;;4998906;28;19937;-70
2023/04/14 04:27:41;;;;;;;;;;;7.00;85.70;;;;;;5001515;28;19933;-69
2023/04/14 04:30:08;;;;;;;;;;;6.90;85.60;;;;;;4998909;28;19964;-70
2023/04/14 04:32:35;;;;;;;;;;;7.00;85.60;;;;;;5003210;28;20020;-69
2023/04/14 04:35:02;;;;;;;;;;;6.90;85.60;;;;;;5001731;28;19933;-69
2023/04/14 04:37:29;;;;;;;;;;;6.90;85.60;;;;;;4999413;28;19930;-69
2023/04/14 04:39:56;;;;;;;;;;;6.90;85.60;;;;;;5001730;28;19930;-69
2023/04/14 04:42:24;;;;;;;;;;;6.90;85.70;;;;;;5002667;28;20021;-69
2023/04/14 04:44:51;;;;;;;;;;;6.90;85.70;;;;;;5000935;28;19937;-69
2023/04/14 04:47:17;;;;;;;;;;;6.90;86.40;;;;;;5001496;28;19929;-69
2023/04/14 04:49:44;;;;;;;;;;;6.80;85.70;;;;;;5002474;28;20280;-69
2023/04/14 04:52:11;;;;;;;;;;;6.90;85.80;;;;;;5001639;28;19936;-69
2023/04/14 04:54:37;;;;;;;;;;;6.80;85.80;;;;;;5002953;28;19940;-69
2023/04/14 04:57:04;;;;;;;;;;;6.90;85.90;;;;;;5001286;28;20016;-68
2023/04/14 04:59:32;;;;;;;;;;;6.80;85.80;;;;;;5000094;28;20347;-68
2023/04/14 05:01:58;;;;;;;;;;;6.80;85.90;;;;;;5002252;28;20028;-70
2023/04/14 05:04:25;;;;;;;;;;;6.80;85.90;;;;;;5003045;28;19930;-69
2023/04/14 05:06:51;;;;;;;;;;;6.80;86.00;;;;;;4998649;28;20726;-69
2023/04/14 05:09:18;;;;;;;;;;;6.80;86.00;;;;;;4998333;28;19941;-69
2023/04/14 05:11:44;;;;;;;;;;;6.80;86.10;;;;;;5001623;28;19992;-69
2023/04/14 05:14:11;;;;;;;;;;;6.80;86.20;;;;;;5000829;28;20027;-68
2023/04/14 05:16:39;;;;;;;;;;;6.70;86.20;;;;;;4999847;28;19937;-67
2023/04/14 05:19:05;;;;;;;;;;;6.70;86.30;;;;;;4999901;28;19929;-68
2023/04/14 05:21:32;;;;;;;;;;;6.70;86.30;;;;;;5002664;28;19933;-69
2023/04/14 05:23:59;;;;;;;;;;;6.70;86.40;;;;;;5001970;28;19945;-70
2023/04/14 05:26:25;;;;;;;;;;;6.70;86.40;;;;;;4998535;28;20056;-68
2023/04/14 05:28:52;;;;;;;;;;;6.70;86.40;;;;;;5000495;28;20023;-69
2023/04/14 05:31:19;;;;;;;;;;;6.70;86.50;;;;;;4995655;28;19941;-69
2023/04/14 05:33:47;;;;;;;;;;;6.70;86.50;;;;;;5001575;28;20347;-69
2023/04/14 05:36:13;;;;;;;;;;;6.60;86.50;;;;;;5000760;28;20295;-69
2023/04/14 05:38:40;;;;;;;;;;;6.70;86.60;;;;;;4997552;28;19940;-69
2023/04/14 05:41:07;;;;;;;;;;;6.70;86.60;;;;;;5001988;28;20668;-69
2023/04/14 05:43:33;;;;;;;;;;;6.70;86.70;;;;;;5000728;28;20472;-69
2023/04/14 05:46:01;;;;;;;;;;;6.60;86.70;;;;;;4999926;28;19937;-69
2023/04/14 05:48:29;;;;;;;;;;;6.70;86.80;;;;;;5000880;28;20015;-69
2023/04/14 05:50:57;;;;;;;;;;;6.70;86.90;;;;;;5000121;28;20013;-69
2023/04/14 05:53:24;;;;;;;;;;;6.70;86.90;;;;;;4998087;28;19936;-69
2023/04/14 05:55:51;;;;;;;;;;;6.60;86.90;;;;;;5001427;28;19929;-68
2023/04/14 05:58:18;;;;;;;;;;;6.60;87.00;;;;;;4999717;28;20266;-70
2023/04/14 06:00:44;;;;;;;;;;;6.70;87.10;;;;;;5000862;28;19930;-69
2023/04/14 06:03:11;;;;;;;;;;;6.60;87.00;;;;;;5001369;28;19938;-70
2023/04/14 06:05:37;;;;;;;;;;;6.60;87.10;;;;;;5001583;28;20417;-68
2023/04/14 06:08:05;;;;;;;;;;;6.60;87.00;;;;;;4998308;28;20319;-69
2023/04/14 06:10:34;;;;;;;;;;;6.60;87.80;;;;;;5002163;28;19984;-69
2023/04/14 06:13:00;;;;;;;;;;;6.70;87.20;;;;;;5004267;28;20020;-69
2023/04/14 06:15:28;;;;;;;;;;;6.60;87.20;;;;;;5004738;28;19937;-69
2023/04/14 06:17:55;;;;;;;;;;;6.60;87.20;;;;;;5001640;28;19937;-69
2023/04/14 06:20:21;;;;;;;;;;;6.70;87.20;;;;;;5005037;28;19936;-70
2023/04/14 06:22:48;;;;;;;;;;;6.60;87.40;;;;;;5005373;28;20852;-68
2023/04/14 06:25:16;;;;;;;;;;;6.60;87.40;;;;;;4998297;28;19929;-70
2023/04/14 06:27:42;;;;;;;;;;;6.60;87.40;;;;;;5004199;28;19980;-69
2023/04/14 06:30:09;;;;;;;;;;;6.60;87.50;;;;;;5003481;28;19929;-69
2023/04/14 06:32:36;;;;;;;;;;;6.60;87.50;;;;;;5004859;28;19929;-70
2023/04/14 06:35:03;;;;;;;;;;;6.60;87.50;;;;;;5004011;28;19933;-69
2023/04/14 06:37:30;;;;;;;;;;;6.60;87.50;;;;;;5001689;28;19934;-69
2023/04/14 06:39:56;;;;;;;;;;;6.60;87.40;;;;;;5003994;28;19936;-69
2023/04/14 06:42:24;;;;;;;;;;;6.70;87.40;;;;;;5005209;28;19936;-69
2023/04/14 06:44:51;;;;;;;;;;;6.70;87.40;;;;;;5003361;28;19936;-69
2023/04/14 06:47:18;;;;;;;;;;;6.70;87.40;;;;;;5003324;28;19930;-69
2023/04/14 06:49:44;;;;;;;;;;;6.60;87.40;;;;;;5003815;28;19933;-69
2023/04/14 06:52:11;;;;;;;;;;;6.70;87.80;;;;;;4999687;28;19936;-69
2023/04/14 06:54:37;;;;;;;;;;;6.70;87.80;;;;;;5002756;28;20362;-69
2023/04/14 06:57:04;;;;;;;;;;;6.70;87.90;;;;;;5003776;28;20394;-68
2023/04/14 06:59:32;;;;;;;;;;;6.70;88.10;;;;;;5000215;28;20063;-69
2023/04/14 07:01:58;;;;;;;;;;;6.70;88.20;;;;;;4998579;28;20004;-71
2023/04/14 07:04:25;;;;;;;;;;;6.70;88.30;;;;;;5004464;28;19933;-69
2023/04/14 07:06:51;;;;;;;;;;;6.70;88.20;;;;;;5003101;28;20442;-70
2023/04/14 07:09:19;;;;;;;;;;;6.70;88.40;;;;;;5000327;28;20631;-67
2023/04/14 07:11:46;;;;;;;;;;;6.70;88.50;;;;;;5000828;28;20629;-69
2023/04/14 07:14:12;;;;;;;;;;;6.70;88.70;;;;;;5003435;28;20028;-69
2023/04/14 07:16:40;;;;;;;;;;;6.80;88.80;;;;;;5003314;28;19926;-69
2023/04/14 07:19:07;;;;;;;;;;;6.80;88.80;;;;;;5003030;28;19925;-69
2023/04/14 07:21:34;;;;;;;;;;;6.80;89.00;;;;;;5004395;28;19984;-69
2023/04/14 07:24:00;;;;;;;;;;;6.80;89.00;;;;;;4998661;28;19940;-69
2023/04/14 07:26:27;;;;;;;;;;;6.90;89.00;;;;;;5003574;28;19934;-69
2023/04/14 07:28:54;;;;;;;;;;;6.90;88.90;;;;;;5002292;28;19932;-69
2023/04/14 07:31:20;;;;;;;;;;;6.90;88.90;;;;;;4997473;28;19930;-69
2023/04/14 07:33:48;;;;;;;;;;;6.90;89.00;;;;;;5005025;28;19937;-69
2023/04/14 07:36:14;;;;;;;;;;;6.90;89.10;;;;;;5002398;28;19933;-70
2023/04/14 07:38:42;;;;;;;;;;;6.90;89.10;;;;;;5002292;28;19934;-70
2023/04/14 07:41:09;;;;;;;;;;;6.90;89.00;;;;;;5003744;28;20670;-69
2023/04/14 07:43:35;;;;;;;;;;;7.00;88.90;;;;;;5003193;28;19929;-69
2023/04/14 07:46:03;;;;;;;;;;;7.00;88.90;;;;;;5002203;28;19995;-68
2023/04/14 07:48:30;;;;;;;;;;;7.00;88.80;;;;;;5003683;28;20397;-69
2023/04/14 07:50:58;;;;;;;;;;;7.00;88.70;;;;;;5004075;28;19961;-70
2023/04/14 07:53:25;;;;;;;;;;;7.00;88.60;;;;;;5003374;28;19929;-69
2023/04/14 07:55:51;;;;;;;;;;;7.10;88.50;;;;;;5003352;28;19936;-69
2023/04/14 07:58:18;;;;;;;;;;;7.10;88.50;;;;;;5001240;28;19936;-69
2023/04/14 08:00:44;;;;;;;;;;;7.10;88.40;;;;;;5001539;28;19937;-69
2023/04/14 08:03:12;;;;;;;;;;;7.10;88.40;;;;;;5003027;28;19972;-69
2023/04/14 08:05:38;;;;;;;;;;;7.20;88.40;;;;;;5003558;28;19930;-69
2023/04/14 08:08:07;;;;;;;;;;;7.20;88.30;;;;;;5000259;28;19934;-69
2023/04/14 08:10:33;;;;;;;;;;;7.20;88.30;;;;;;4998545;28;20048;-69
2023/04/14 08:13:00;;;;;;;;;;;7.20;88.20;;;;;;5001244;28;19992;-67
2023/04/14 08:15:26;;;;;;;;;;;7.30;88.20;;;;;;5003007;28;19941;-70
2023/04/14 08:17:53;;;;;;;;;;;7.30;88.10;;;;;;4999044;28;20404;-69
2023/04/14 08:20:19;;;;;;;;;;;7.30;88.10;;;;;;5003303;28;19941;-70
2023/04/14 08:22:47;;;;;;;;;;;7.40;88.10;;;;;;5003329;28;20422;-68
2023/04/14 08:25:15;;;;;;;;;;;7.40;88.10;;;;;;4999594;28;19941;-70
2023/04/14 08:27:42;;;;;;;;;;;7.40;88.00;;;;;;4999766;28;20007;-69
2023/04/14 08:30:09;;;;;;;;;;;7.50;87.90;;;;;;5001091;28;19936;-69
2023/04/14 08:32:36;;;;;;;;;;;7.50;88.60;;;;;;5001692;28;19936;-69
2023/04/14 08:35:02;;;;;;;;;;;7.50;88.00;;;;;;5002364;28;20311;-68
2023/04/14 08:37:29;;;;;;;;;;;7.60;88.10;;;;;;4995346;28;19937;-70
2023/04/14 08:39:55;;;;;;;;;;;7.70;88.00;;;;;;5000769;28;20404;-69
2023/04/14 08:42:24;;;;;;;;;;;7.70;87.70;;;;;;5003250;28;19960;-69
2023/04/14 08:44:52;;;;;;;;;;;7.80;87.60;;;;;;5001377;28;19934;-69
2023/04/14 08:47:19;;;;;;;;;;;7.90;87.30;;;;;;5001053;28;19926;-70
2023/04/14 08:49:51;;;;;;;;;;;7.90;87.10;;;;;;5003296;28;19930;-68
2023/04/14 08:52:20;;;;;;;;;;;8.00;87.00;;;;;;5002692;28;19933;-70
2023/04/14 08:54:49;;;;;;;;;;;8.10;86.70;;;;;;5001781;28;20408;-70
2023/04/14 08:57:18;;;;;;;;;;;8.10;86.40;;;;;;5001141;28;19968;-69
2023/04/14 08:59:46;;;;;;;;;;;8.20;86.00;;;;;;5000085;28;19929;-68
2023/04/14 09:02:13;;;;;;;;;;;8.30;85.60;;;;;;5002183;28;19965;-70
2023/04/14 09:04:40;;;;;;;;;;;8.30;85.30;;;;;;5002566;28;20351;-69
2023/04/14 09:07:07;;;;;;;;;;;8.40;85.20;;;;;;5000116;28;19936;-69
2023/04/14 09:09:34;;;;;;;;;;;8.50;84.90;;;;;;5001826;28;19983;-69
2023/04/14 09:12:02;;;;;;;;;;;8.60;84.70;;;;;;5001980;28;19929;-70
2023/04/14 09:14:28;;;;;;;;;;;8.60;84.80;;;;;;5001402;28;20011;-71
2023/04/14 09:16:56;;;;;;;;;;;8.70;84.10;;;;;;4998008;28;20852;-68
2023/04/14 09:19:24;;;;;;;;;;;8.80;83.70;;;;;;4994872;28;19929;-69
2023/04/14 09:21:50;;;;;;;;;;;8.80;83.50;;;;;;5002209;28;19929;-70
2023/04/14 09:24:22;;;;;;;;;;;8.90;83.30;;;;;;5002315;28;19929;-70
2023/04/14 09:26:48;;;;;;;;;;;8.90;83.10;;;;;;4996555;28;20458;-69
2023/04/14 09:29:15;;;;;;;;;;;8.90;82.80;;;;;;5000275;28;19941;-69
2023/04/14 09:31:42;;;;;;;;;;;9.00;82.90;;;;;;5001363;28;19940;-69
2023/04/14 09:34:17;;;;;;;;;;;9.10;82.50;;;;;;5001949;28;19929;-69
2023/04/14 09:36:58;;;;;;;;;;;9.10;82.10;;;;;;4997269;28;20016;-70
2023/04/14 09:39:25;;;;;;;;;;;9.20;81.90;;;;;;4993541;28;19960;-69
2023/04/14 09:41:51;;;;;;;;;;;9.30;81.70;;;;;;5001709;28;20509;-70
2023/04/14 09:44:18;;;;;;;;;;;9.30;81.40;;;;;;5002155;28;20128;-69
2023/04/14 09:46:55;;;;;;;;;;;9.30;81.10;;;;;;5004100;28;20362;-70
2023/04/14 09:49:23;;;;;;;;;;;9.40;80.70;;;;;;5003323;28;19937;-69
2023/04/14 09:51:52;;;;;;;;;;;9.50;80.80;;;;;;5005732;28;19930;-71
2023/04/14 09:54:23;;;;;;;;;;;9.50;80.50;;;;;;5005300;28;19929;-70
2023/04/14 09:56:50;;;;;;;;;;;9.60;80.40;;;;;;5001213;28;20011;-70
2023/04/14 09:59:16;;;;;;;;;;;9.70;81.10;;;;;;5002732;28;19929;-69
2023/04/14 10:01:45;;;;;;;;;;;9.80;79.80;;;;;;5005662;28;20647;-69
2023/04/14 10:04:20;;;;;;;;;;;9.80;79.50;;;;;;5005312;28;19929;-70
2023/04/14 10:06:49;;;;;;;;;;;9.80;79.10;;;;;;5005438;28;20040;-69
2023/04/14 10:09:20;;;;;;;;;;;9.90;79.10;;;;;;5003724;28;20367;-69
2023/04/14 10:11:47;;;;;;;;;;;10.00;79.00;;;;;;5001994;28;20021;-69
2023/04/14 10:14:13;;;;;;;;;;;10.00;78.60;;;;;;5003732;28;19991;-69
2023/04/14 10:16:40;;;;;;;;;;;10.10;78.30;;;;;;5003986;28;19972;-70
2023/04/14 10:19:07;;;;;;;;;;;10.10;78.50;;;;;;5003961;28;19933;-70
2023/04/14 10:21:34;;;;;;;;;;;10.20;78.30;;;;;;5005758;28;20423;-69
2023/04/14 10:24:02;;;;;;;;;;;10.20;77.70;;;;;;5002285;28;19937;-69
2023/04/14 10:26:30;;;;;;;;;;;10.30;77.40;;;;;;5004642;28;19933;-69
2023/04/14 10:28:56;;;;;;;;;;;10.30;77.40;;;;;;5002757;28;19937;-69
2023/04/14 10:31:25;;;;;;;;;;;10.40;77.30;;;;;;5004275;28;20007;-69
2023/04/14 10:33:51;;;;;;;;;;;10.50;76.80;;;;;;5005229;28;19937;-70
2023/04/14 10:36:22;;;;;;;;;;;10.60;76.80;;;;;;5001927;28;20072;-69
2023/04/14 10:38:49;;;;;;;;;;;10.60;76.40;;;;;;5004197;28;20311;-70
2023/04/14 10:41:17;;;;;;;;;;;10.50;75.80;;;;;;5005255;28;20052;-70
2023/04/14 10:43:43;;;;;;;;;;;10.70;76.30;;;;;;5002509;28;19929;-69
2023/04/14 10:46:10;;;;;;;;;;;10.70;76.20;;;;;;5003343;28;19930;-70
2023/04/14 10:48:38;;;;;;;;;;;10.80;76.00;;;;;;5004604;28;20004;-70
2023/04/14 10:51:05;;;;;;;;;;;10.80;75.70;;;;;;5004405;28;19941;-69
2023/04/14 10:53:39;;;;;;;;;;;10.90;75.40;;;;;;4999706;28;19937;-69
2023/04/14 10:56:06;;;;;;;;;;;10.90;74.60;;;;;;5002321;28;19930;-69
2023/04/14 10:58:37;;;;;;;;;;;10.80;74.10;;;;;;5002708;28;20351;-69
2023/04/14 11:01:24;;;;;;;;;;;10.90;74.40;;;;;;5002386;28;19938;-69
2023/04/14 11:03:51;;;;;;;;;;;10.80;74.50;;;;;;5001578;28;19929;-69
2023/04/14 11:06:35;;;;;;;;;;;10.90;74.80;;;;;;5002362;28;19933;-69
2023/04/14 11:09:02;;;;;;;;;;;10.80;74.90;;;;;;4996649;28;20007;-70
2023/04/14 11:11:28;;;;;;;;;;;10.80;74.90;;;;;;5004862;28;19929;-71
2023/04/14 11:16:49;;;;;;;;;;;10.90;74.70;;;;;;5074955;27;19925;-70
2023/04/14 11:19:16;;;;;;;;;;;11.00;74.10;;;;;;5053340;28;19937;-69
2023/04/14 11:21:49;;;;;;;;;;;11.00;74.20;;;;;;5054258;28;19928;-67
2023/04/14 11:24:16;;;;;;;;;;;11.10;73.90;;;;;;5062232;28;19932;-69
2023/04/14 11:26:43;;;;;;;;;;;11.20;73.00;;;;;;5067407;28;19929;-70
2023/04/14 11:29:09;;;;;;;;;;;11.30;72.90;;;;;;5060180;28;19932;-69
2023/04/14 11:31:36;;;;;;;;;;;11.40;71.40;;;;;;5055724;28;20465;-69
2023/04/14 11:34:05;;;;;;;;;;;11.50;71.70;;;;;;5031009;28;19929;-70
2023/04/14 11:36:35;;;;;;;;;;;11.60;70.70;;;;;;5040695;28;20011;-70
2023/04/14 11:39:01;;;;;;;;;;;11.70;70.70;;;;;;5039979;28;19929;-70
2023/04/14 11:41:29;;;;;;;;;;;11.70;70.60;;;;;;5040299;28;20386;-70
2023/04/14 11:43:55;;;;;;;;;;;11.80;70.10;;;;;;5033712;28;19936;-69
2023/04/14 11:46:22;;;;;;;;;;;11.90;69.90;;;;;;5041166;28;19929;-70
2023/04/14 11:48:53;;;;;;;;;;;12.00;69.60;;;;;;5065274;28;19928;-69
2023/04/14 11:51:28;;;;;;;;;;;12.10;69.20;;;;;;5058676;28;19986;-71
2023/04/14 11:53:55;;;;;;;;;;;12.20;69.30;;;;;;5066411;28;20394;-70
2023/04/14 11:56:21;;;;;;;;;;;12.30;69.60;;;;;;5060510;28;19929;-69
2023/04/14 11:58:48;;;;;;;;;;;12.30;69.60;;;;;;5062555;28;20108;-70
2023/04/14 12:01:14;;;;;;;;;;;12.40;69.20;;;;;;5063386;28;19928;-70
2023/04/14 12:03:41;;;;;;;;;;;12.50;68.20;;;;;;5072669;28;19928;-69
2023/04/14 12:06:08;;;;;;;;;;;12.50;67.70;;;;;;5065104;28;19928;-69
2023/04/14 12:08:35;;;;;;;;;;;12.60;66.20;;;;;;5061333;28;19944;-70
2023/04/14 12:11:12;;;;;;;;;;;12.70;65.80;;;;;;5058708;28;19929;-68
2023/04/14 12:13:39;;;;;;;;;;;12.70;66.80;;;;;;5061509;28;19935;-70
2023/04/14 12:16:06;;;;;;;;;;;12.80;66.30;;;;;;5072077;28;20385;-71
2023/04/14 12:18:33;;;;;;;;;;;12.80;65.90;;;;;;5076288;28;20661;-70
2023/04/14 12:21:01;;;;;;;;;;;12.90;65.90;;;;;;5077758;28;20014;-70
2023/04/14 12:23:28;;;;;;;;;;;13.00;64.40;;;;;;5084049;28;19936;-70
2023/04/14 12:25:56;;;;;;;;;;;13.00;64.90;;;;;;5080994;28;19932;-70
2023/04/14 12:28:24;;;;;;;;;;;13.10;65.00;;;;;;5064408;28;19936;-69
2023/04/14 12:30:51;;;;;;;;;;;13.10;63.60;;;;;;5065728;28;19936;-69
2023/04/14 12:33:21;;;;;;;;;;;13.20;63.90;;;;;;5064467;28;20734;-70
2023/04/14 12:35:50;;;;;;;;;;;13.20;63.50;;;;;;5060793;28;19936;-69
2023/04/14 12:38:16;;;;;;;;;;;13.20;63.30;;;;;;5065363;28;20154;-69
2023/04/14 12:40:44;;;;;;;;;;;13.30;63.90;;;;;;5064498;28;20555;-69
2023/04/14 12:43:12;;;;;;;;;;;13.40;64.20;;;;;;5063127;28;20022;-67
2023/04/14 12:45:40;;;;;;;;;;;13.40;61.90;;;;;;5066310;28;19931;-68
2023/04/14 12:48:07;;;;;;;;;;;13.40;63.20;;;;;;5071981;28;19944;-68
2023/04/14 12:50:33;;;;;;;;;;;13.50;63.50;;;;;;5072991;28;19970;-70
2023/04/14 12:53:00;;;;;;;;;;;13.60;60.30;;;;;;5054861;28;19940;-70
2023/04/14 12:55:28;;;;;;;;;;;13.60;61.30;;;;;;5077166;28;20297;-70
2023/04/14 12:57:55;;;;;;;;;;;13.70;61.40;;;;;;5067782;28;20013;-71
2023/04/14 13:00:24;;;;;;;;;;;13.70;60.60;;;;;;5075429;28;19935;-69
2023/04/14 13:02:51;;;;;;;;;;;13.80;61.10;;;;;;5068305;28;19944;-70
2023/04/14 13:05:18;;;;;;;;;;;13.90;60.20;;;;;;5066186;28;19932;-70
2023/04/14 13:07:45;;;;;;;;;;;13.90;59.10;;;;;;5063376;28;19928;-69
2023/04/14 13:10:11;;;;;;;;;;;14.00;59.90;;;;;;5072003;28;19935;-70
2023/04/14 13:12:38;;;;;;;;;;;14.00;59.50;;;;;;5067819;28;19935;-68
2023/04/14 13:15:05;;;;;;;;;;;14.10;57.30;;;;;;5069522;28;20584;-67
2023/04/14 13:17:33;;;;;;;;;;;14.10;58.00;;;;;;5068450;28;20398;-68
2023/04/14 13:20:00;;;;;;;;;;;14.10;58.50;;;;;;5078001;28;20385;-68
2023/04/14 13:22:26;;;;;;;;;;;14.20;58.90;;;;;;5070111;28;20398;-67
2023/04/14 13:24:54;;;;;;;;;;;14.30;59.00;;;;;;5073996;28;20443;-68
2023/04/14 13:27:20;;;;;;;;;;;14.30;57.10;;;;;;5065649;28;19939;-70
2023/04/14 13:29:47;;;;;;;;;;;14.40;56.90;;;;;;5063300;28;19936;-70
2023/04/14 13:32:13;;;;;;;;;;;14.40;57.60;;;;;;5071157;28;19932;-67
2023/04/14 13:34:42;;;;;;;;;;;14.50;56.00;;;;;;5068611;28;20465;-67
2023/04/14 13:37:09;;;;;;;;;;;14.50;57.30;;;;;;5068852;28;19928;-69
2023/04/14 13:39:36;;;;;;;;;;;14.60;56.80;;;;;;5064911;28;19936;-69
2023/04/14 13:42:03;;;;;;;;;;;14.60;57.30;;;;;;5071719;28;19928;-69
2023/04/14 13:44:31;;;;;;;;;;;14.60;56.70;;;;;;5064618;28;19928;-71
2023/04/14 13:46:57;;;;;;;;;;;14.70;56.90;;;;;;5067516;28;20020;-68
2023/04/14 13:49:24;;;;;;;;;;;14.80;57.40;;;;;;5070537;28;19993;-70
2023/04/14 13:51:52;;;;;;;;;;;14.80;57.30;;;;;;5066718;28;20297;-70
2023/04/14 13:54:18;;;;;;;;;;;14.90;57.70;;;;;;5058940;28;19943;-70
2023/04/14 13:56:45;;;;;;;;;;;14.90;54.70;;;;;;5072055;28;19932;-70
2023/04/14 13:59:13;;;;;;;;;;;14.90;55.50;;;;;;5073410;28;20389;-70
2023/04/14 14:01:39;;;;;;;;;;;15.00;55.80;;;;;;5066939;28;20467;-70
2023/04/14 14:04:06;;;;;;;;;;;15.10;55.90;;;;;;5072611;28;19928;-70
2023/04/14 14:06:32;;;;;;;;;;;15.10;56.30;;;;;;5065867;28;19974;-69
2023/04/14 14:09:03;;;;;;;;;;;15.10;56.80;;;;;;5066351;28;19950;-69
2023/04/14 14:11:29;;;;;;;;;;;15.20;54.90;;;;;;5068123;28;19943;-69
2023/04/14 14:13:57;;;;;;;;;;;15.30;55.00;;;;;;5065669;28;19929;-70
2023/04/14 14:16:23;;;;;;;;;;;15.30;54.70;;;;;;5073398;28;20595;-69
2023/04/14 14:18:50;;;;;;;;;;;15.40;53.40;;;;;;5065041;28;19928;-70
2023/04/14 14:21:16;;;;;;;;;;;15.50;53.50;;;;;;5073845;28;19928;-69
2023/04/14 14:23:43;;;;;;;;;;;15.50;54.20;;;;;;5075227;28;19983;-68
2023/04/14 14:26:12;;;;;;;;;;;15.60;54.70;;;;;;5067773;28;19936;-69
2023/04/14 14:28:39;;;;;;;;;;;15.60;54.90;;;;;;5066335;28;19940;-68
2023/04/14 14:31:05;;;;;;;;;;;15.70;53.00;;;;;;5070449;28;19928;-67